^^
Meteo Knjazevac Station Historical Data
Daily Summary for September 19, 2021 Units:  Both    English   Metric
Daily Weekly Monthly Yearly Custom
  High: Low: Average:
Temperature: 57.4 °F /  14.1 °C 36.9 °F /  2.7 °C 44.9 °F /  7.2 °C
Dew Point: 50 °F /  10 °C 36.5 °F /  2.5 °C 42.9 °F /  6.1 °C
Humidity: 99% 75% 93%
Wind Speed: 3mph /  4.8km/h - 1.1mph /  1.8km/h
Wind Gust: 8mph /  12.9km/h - -
Wind- - West
Pressure: 30.43 in /  1030.4 hPa 30.38 in /  1028.7 hPa -
Precipitation: 0.00 in /  0 mm    
Historical Graphs
 
 
Tabular Data for September 19, 2021
Time Temperature Dew Point Pressure Wind Wind Speed Wind Gust Humidity Rainfall Rate (Hourly) solar Conditions
00:00 42.4 °F /  5.8 °C 41.4 °F /  5.2 °C 30.38in /  1028.7hPa Calm   3mph /  4.8km/h 96% 0.00in /  0mm 0 W/m2
00:10 42.3 °F /  5.7 °C 41.7 °F /  5.4 °C 30.38in /  1028.7hPa Calm   4mph /  6.4km/h 98% 0.00in /  0mm 0 W/m2
00:20 42.1 °F /  5.6 °C 41.6 °F /  5.3 °C 30.38in /  1028.7hPa Calm   2mph /  3.2km/h 98% 0.00in /  0mm 0 W/m2
00:30 41.9 °F /  5.5 °C 41.4 °F /  5.2 °C 30.38in /  1028.7hPa Calm   3mph /  4.8km/h 98% 0.00in /  0mm 0 W/m2
00:40 41.5 °F /  5.3 °C 40.5 °F /  4.7 °C 30.38in /  1028.7hPa Calm   2mph /  3.2km/h 96% 0.00in /  0mm 0 W/m2
00:50 41.4 °F /  5.2 °C 40.8 °F /  4.9 °C 30.38in /  1028.7hPa NW 1mph /  1.6km/h 2mph /  3.2km/h 98% 0.00in /  0mm 0 W/m2
01:00 41.2 °F /  5.1 °C 40.7 °F /  4.8 °C 30.38in /  1028.7hPa Calm   2mph /  3.2km/h 98% 0.00in /  0mm 0 W/m2
01:10 41.2 °F /  5.1 °C 40.6 °F /  4.8 °C 30.38in /  1028.7hPa NNW 1mph /  1.6km/h 3mph /  4.8km/h 98% 0.00in /  0mm 0 W/m2
01:20 41 °F /  5 °C 40.5 °F /  4.7 °C 30.39in /  1029hPa Calm   3mph /  4.8km/h 98% 0.00in /  0mm 0 W/m2
01:30 40.8 °F /  4.9 °C 40.3 °F /  4.6 °C 30.39in /  1029hPa West 1mph /  1.6km/h 3mph /  4.8km/h 98% 0.00in /  0mm 0 W/m2
01:40 40.8 °F /  4.9 °C 40.3 °F /  4.6 °C 30.39in /  1029hPa Calm   2mph /  3.2km/h 98% 0.00in /  0mm 0 W/m2
01:50 40.4 °F /  4.7 °C 39.9 °F /  4.4 °C 30.39in /  1029hPa WNW 1mph /  1.6km/h 3mph /  4.8km/h 98% 0.00in /  0mm 0 W/m2
02:00 40.1 °F /  4.5 °C 39.6 °F /  4.2 °C 30.39in /  1029hPa NW 1mph /  1.6km/h 3mph /  4.8km/h 98% 0.00in /  0mm 0 W/m2
02:10 39.7 °F /  4.3 °C 39.2 °F /  4 °C 30.39in /  1029hPa WNW 2mph /  3.2km/h 3mph /  4.8km/h 98% 0.00in /  0mm 0 W/m2
02:20 39.4 °F /  4.1 °C 38.9 °F /  3.8 °C 30.39in /  1029hPa West 1mph /  1.6km/h 3mph /  4.8km/h 98% 0.00in /  0mm 0 W/m2
02:30 39 °F /  3.9 °C 38.5 °F /  3.6 °C 30.39in /  1029hPa West 2mph /  3.2km/h 4mph /  6.4km/h 98% 0.00in /  0mm 0 W/m2
02:40 39 °F /  3.9 °C 38.7 °F /  3.7 °C 30.39in /  1029hPa Calm   3mph /  4.8km/h 99% 0.00in /  0mm 0 W/m2
02:50 38.8 °F /  3.8 °C 38.6 °F /  3.7 °C 30.39in /  1029hPa NW 1mph /  1.6km/h 3mph /  4.8km/h 99% 0.00in /  0mm 0 W/m2
03:00 38.5 °F /  3.6 °C 38.2 °F /  3.4 °C 30.38in /  1028.7hPa NW 1mph /  1.6km/h 3mph /  4.8km/h 99% 0.00in /  0mm 0 W/m2
03:10 38.5 °F /  3.6 °C 38.2 °F /  3.4 °C 30.38in /  1028.7hPa Calm   2mph /  3.2km/h 99% 0.00in /  0mm 0 W/m2
03:20 38.1 °F /  3.4 °C 37.9 °F /  3.3 °C 30.38in /  1028.7hPa NW 1mph /  1.6km/h 3mph /  4.8km/h 99% 0.00in /  0mm 0 W/m2
03:30 37.9 °F /  3.3 °C 37.4 °F /  3 °C 30.38in /  1028.7hPa WNW 2mph /  3.2km/h 5mph /  8km/h 98% 0.00in /  0mm 0 W/m2
03:40 37.5 °F /  3.1 °C 37 °F /  2.8 °C 30.39in /  1029hPa WNW 1mph /  1.6km/h 3mph /  4.8km/h 98% 0.00in /  0mm 0 W/m2
03:50 37.2 °F /  2.9 °C 36.7 °F /  2.6 °C 30.39in /  1029hPa WNW 1mph /  1.6km/h 3mph /  4.8km/h 98% 0.00in /  0mm 0 W/m2
04:00 37 °F /  2.8 °C 36.5 °F /  2.5 °C 30.38in /  1028.7hPa WNW 1mph /  1.6km/h 4mph /  6.4km/h 98% 0.00in /  0mm 0 W/m2
04:10 36.9 °F /  2.7 °C 36.6 °F /  2.6 °C 30.39in /  1029hPa NW 1mph /  1.6km/h 3mph /  4.8km/h 99% 0.00in /  0mm 0 W/m2
04:20 36.9 °F /  2.7 °C 36.6 °F /  2.6 °C 30.39in /  1029hPa West 2mph /  3.2km/h 3mph /  4.8km/h 99% 0.00in /  0mm 0 W/m2
04:30 36.9 °F /  2.7 °C 36.6 °F /  2.6 °C 30.39in /  1029hPa NNW 1mph /  1.6km/h 3mph /  4.8km/h 99% 0.00in /  0mm 0 W/m2
04:40 37 °F /  2.8 °C 36.8 °F /  2.7 °C 30.39in /  1029hPa West 1mph /  1.6km/h 2mph /  3.2km/h 99% 0.00in /  0mm 0 W/m2
04:50 36.9 °F /  2.7 °C 36.6 °F /  2.6 °C 30.39in /  1029hPa Calm   2mph /  3.2km/h 99% 0.00in /  0mm 0 W/m2
05:00 36.9 °F /  2.7 °C 36.6 °F /  2.6 °C 30.39in /  1029hPa WNW 1mph /  1.6km/h 5mph /  8km/h 99% 0.00in /  0mm 0 W/m2
05:10 36.9 °F /  2.7 °C 36.6 °F /  2.6 °C 30.39in /  1029hPa West 2mph /  3.2km/h 5mph /  8km/h 99% 0.00in /  0mm 0 W/m2
05:20 36.9 °F /  2.7 °C 36.6 °F /  2.6 °C 30.39in /  1029hPa West 2mph /  3.2km/h 4mph /  6.4km/h 99% 0.00in /  0mm 0 W/m2
05:30 37.1 °F /  2.8 °C 36.8 °F /  2.7 °C 30.39in /  1029hPa WNW 2mph /  3.2km/h 5mph /  8km/h 99% 0.00in /  0mm 0 W/m2
05:40 37.2 °F /  2.9 °C 37 °F /  2.8 °C 30.40in /  1029.3hPa NW 1mph /  1.6km/h 3mph /  4.8km/h 99% 0.00in /  0mm 0 W/m2
05:50 37.4 °F /  3 °C 37.2 °F /  2.9 °C 30.40in /  1029.3hPa WNW 1mph /  1.6km/h 4mph /  6.4km/h 99% 0.00in /  0mm 0 W/m2
06:00 37.8 °F /  3.2 °C 37.5 °F /  3.1 °C 30.40in /  1029.3hPa WNW 2mph /  3.2km/h 5mph /  8km/h 99% 0.00in /  0mm 0 W/m2
06:10 37.9 °F /  3.3 °C 37.7 °F /  3.2 °C 30.40in /  1029.3hPa West 2mph /  3.2km/h 5mph /  8km/h 99% 0.00in /  0mm 0 W/m2
06:20 38.1 °F /  3.4 °C 37.9 °F /  3.3 °C 30.41in /  1029.7hPa WNW 1mph /  1.6km/h 3mph /  4.8km/h 99% 0.00in /  0mm 0 W/m2
06:30 38.1 °F /  3.4 °C 37.9 °F /  3.3 °C 30.41in /  1029.7hPa Calm   3mph /  4.8km/h 99% 0.00in /  0mm 0 W/m2
06:40 38.4 °F /  3.6 °C 38.2 °F /  3.4 °C 30.41in /  1029.7hPa West 2mph /  3.2km/h 3mph /  4.8km/h 99% 0.00in /  0mm 0 W/m2
06:50 38.7 °F /  3.7 °C 38.4 °F /  3.6 °C 30.41in /  1029.7hPa West 1mph /  1.6km/h 2mph /  3.2km/h 99% 0.00in /  0mm 2 W/m2
07:00 39 °F /  3.9 °C 38.8 °F /  3.8 °C 30.41in /  1029.7hPa WNW 2mph /  3.2km/h 4mph /  6.4km/h 99% 0.00in /  0mm 5 W/m2
07:10 39.4 °F /  4.1 °C 39.1 °F /  3.9 °C 30.41in /  1029.7hPa NNW 1mph /  1.6km/h 2mph /  3.2km/h 99% 0.00in /  0mm 8 W/m2
07:20 39.6 °F /  4.2 °C 39.3 °F /  4.1 °C 30.41in /  1029.7hPa West 1mph /  1.6km/h 3mph /  4.8km/h 99% 0.00in /  0mm 14 W/m2
07:30 39.7 °F /  4.3 °C 39.5 °F /  4.2 °C 30.41in /  1029.7hPa West 2mph /  3.2km/h 3mph /  4.8km/h 99% 0.00in /  0mm 20 W/m2
07:40 40.1 °F /  4.5 °C 39.8 °F /  4.3 °C 30.42in /  1030hPa WNW 1mph /  1.6km/h 3mph /  4.8km/h 99% 0.00in /  0mm 29 W/m2
07:50 40.5 °F /  4.7 °C 40.2 °F /  4.6 °C 30.42in /  1030hPa WNW 1mph /  1.6km/h 4mph /  6.4km/h 99% 0.00in /  0mm 41 W/m2
08:00 41 °F /  5 °C 40.7 °F /  4.8 °C 30.42in /  1030hPa West 1mph /  1.6km/h 4mph /  6.4km/h 99% 0.00in /  0mm 51 W/m2
08:10 41.2 °F /  5.1 °C 41 °F /  5 °C 30.42in /  1030hPa West 2mph /  3.2km/h 2mph /  3.2km/h 99% 0.00in /  0mm 52 W/m2
08:20 41.5 °F /  5.3 °C 41.3 °F /  5.2 °C 30.43in /  1030.4hPa WNW 2mph /  3.2km/h 4mph /  6.4km/h 99% 0.00in /  0mm 51 W/m2
08:30 41.9 °F /  5.5 °C 41.7 °F /  5.4 °C 30.43in /  1030.4hPa Calm   2mph /  3.2km/h 99% 0.00in /  0mm 56 W/m2
08:40 42.4 °F /  5.8 °C 42.2 °F /  5.7 °C 30.43in /  1030.4hPa West 1mph /  1.6km/h 2mph /  3.2km/h 99% 0.00in /  0mm 46 W/m2
08:50 42.8 °F /  6 °C 42.5 °F /  5.8 °C 30.43in /  1030.4hPa WNW 1mph /  1.6km/h 2mph /  3.2km/h 99% 0.00in /  0mm 71 W/m2
09:00 43.2 °F /  6.2 °C 42.9 °F /  6.1 °C 30.43in /  1030.4hPa WSW 1mph /  1.6km/h 2mph /  3.2km/h 99% 0.00in /  0mm 84 W/m2
09:10 43.3 °F /  6.3 °C 43.1 °F /  6.2 °C 30.43in /  1030.4hPa SW 1mph /  1.6km/h 3mph /  4.8km/h 99% 0.00in /  0mm 85 W/m2
09:20 43.7 °F /  6.5 °C 43.4 °F /  6.3 °C 30.43in /  1030.4hPa Calm   1mph /  1.6km/h 99% 0.00in /  0mm 100 W/m2
09:30 44.3 °F /  6.8 °C 44 °F /  6.7 °C 30.43in /  1030.4hPa Calm   2mph /  3.2km/h 99% 0.00in /  0mm 127 W/m2
09:40 45 °F /  7.2 °C 44.7 °F /  7.1 °C 30.43in /  1030.4hPa Calm   1mph /  1.6km/h 99% 0.00in /  0mm 146 W/m2
09:50 45.7 °F /  7.6 °C 45.5 °F /  7.5 °C 30.43in /  1030.4hPa West 1mph /  1.6km/h 2mph /  3.2km/h 99% 0.00in /  0mm 149 W/m2
10:00 46.4 °F /  8 °C 46.1 °F /  7.8 °C 30.43in /  1030.4hPa Calm   2mph /  3.2km/h 99% 0.00in /  0mm 168 W/m2
10:10 46.9 °F /  8.3 °C 46.7 °F /  8.2 °C 30.43in /  1030.4hPa Calm   2mph /  3.2km/h 99% 0.00in /  0mm 167 W/m2
10:20 47.7 °F /  8.7 °C 47.4 °F /  8.6 °C 30.43in /  1030.4hPa Calm   2mph /  3.2km/h 99% 0.00in /  0mm 164 W/m2
10:30 48.2 °F /  9 °C 47.1 °F /  8.4 °C 30.43in /  1030.4hPa Calm   2mph /  3.2km/h 96% 0.00in /  0mm 192 W/m2
10:40 48.8 °F /  9.3 °C 47.7 °F /  8.7 °C 30.43in /  1030.4hPa Calm   2mph /  3.2km/h 96% 0.00in /  0mm 192 W/m2
10:50 49.5 °F /  9.7 °C 48.1 °F /  8.9 °C 30.43in /  1030.4hPa WNW 1mph /  1.6km/h 1mph /  1.6km/h 95% 0.00in /  0mm 197 W/m2
11:00 50.2 °F /  10.1 °C 48.9 °F /  9.4 °C 30.43in /  1030.4hPa Calm   2mph /  3.2km/h 95% 0.00in /  0mm 216 W/m2
11:10 51 °F /  10.6 °C 49 °F /  9.4 °C 30.43in /  1030.4hPa SSW 1mph /  1.6km/h 2mph /  3.2km/h 93% 0.00in /  0mm 232 W/m2
11:20 51.8 °F /  11 °C 49 °F /  9.4 °C 30.43in /  1030.4hPa Calm   3mph /  4.8km/h 90% 0.00in /  0mm 252 W/m2
11:30 52.3 °F /  11.3 °C 49.2 °F /  9.6 °C 30.43in /  1030.4hPa Calm   2mph /  3.2km/h 89% 0.00in /  0mm 216 W/m2
11:40 52.9 °F /  11.6 °C 49.5 °F /  9.7 °C 30.43in /  1030.4hPa SW 1mph /  1.6km/h 3mph /  4.8km/h 88% 0.00in /  0mm 219 W/m2
11:50 53.5 °F /  11.9 °C 49.4 °F /  9.7 °C 30.43in /  1030.4hPa SW 1mph /  1.6km/h 4mph /  6.4km/h 86% 0.00in /  0mm 208 W/m2
12:00 54 °F /  12.2 °C 49.3 °F /  9.6 °C 30.43in /  1030.4hPa SW 3mph /  4.8km/h 8mph /  12.9km/h 84% 0.00in /  0mm 196 W/m2
12:10 54.3 °F /  12.4 °C 49.6 °F /  9.8 °C 30.43in /  1030.4hPa WSW 3mph /  4.8km/h 6mph /  9.7km/h 84% 0.00in /  0mm 173 W/m2
12:20 54.5 °F /  12.5 °C 49.4 °F /  9.7 °C 30.43in /  1030.4hPa SW 3mph /  4.8km/h 6mph /  9.7km/h 83% 0.00in /  0mm 157 W/m2
12:30 54.7 °F /  12.6 °C 49.6 °F /  9.8 °C 30.42in /  1030hPa SW 3mph /  4.8km/h 5mph /  8km/h 83% 0.00in /  0mm 166 W/m2
12:40 54.9 °F /  12.7 °C 49.1 °F /  9.5 °C 30.42in /  1030hPa SW 3mph /  4.8km/h 7mph /  11.3km/h 81% 0.00in /  0mm 168 W/m2
12:50 54.9 °F /  12.7 °C 49.2 °F /  9.6 °C 30.42in /  1030hPa SW 3mph /  4.8km/h 6mph /  9.7km/h 81% 0.00in /  0mm 187 W/m2
13:00 55.2 °F /  12.9 °C 49.2 °F /  9.6 °C 30.42in /  1030hPa SW 3mph /  4.8km/h 6mph /  9.7km/h 80% 0.00in /  0mm 197 W/m2
13:10 55.4 °F /  13 °C 49.3 °F /  9.6 °C 30.41in /  1029.7hPa SW 2mph /  3.2km/h 5mph /  8km/h 80% 0.00in /  0mm 205 W/m2
13:20 55.8 °F /  13.2 °C 49.7 °F /  9.8 °C 30.41in /  1029.7hPa SW 2mph /  3.2km/h 5mph /  8km/h 80% 0.00in /  0mm 213 W/m2
13:30 56.1 °F /  13.4 °C 50 °F /  10 °C 30.41in /  1029.7hPa SW 3mph /  4.8km/h 5mph /  8km/h 80% 0.00in /  0mm 216 W/m2
13:40 56.3 °F /  13.5 °C 49.9 °F /  9.9 °C 30.41in /  1029.7hPa SSW 3mph /  4.8km/h 6mph /  9.7km/h 79% 0.00in /  0mm 235 W/m2
13:50 56.5 °F /  13.6 °C 49.7 °F /  9.8 °C 30.40in /  1029.3hPa SSW 1mph /  1.6km/h 5mph /  8km/h 78% 0.00in /  0mm 236 W/m2
14:00 56.7 °F /  13.7 °C 49.5 °F /  9.7 °C 30.40in /  1029.3hPa SSW 2mph /  3.2km/h 5mph /  8km/h 77% 0.00in /  0mm 216 W/m2
14:10 57 °F /  13.9 °C 49.9 °F /  9.9 °C 30.40in /  1029.3hPa SSW 2mph /  3.2km/h 3mph /  4.8km/h 77% 0.00in /  0mm 196 W/m2
14:20 57.2 °F /  14 °C 49.3 °F /  9.6 °C 30.40in /  1029.3hPa SW 2mph /  3.2km/h 4mph /  6.4km/h 75% 0.00in /  0mm 189 W/m2
14:30 57.4 °F /  14.1 °C 49.5 °F /  9.7 °C 30.40in /  1029.3hPa WSW 2mph /  3.2km/h 4mph /  6.4km/h 75% 0.00in /  0mm 142 W/m2
14:40 57.4 °F /  14.1 °C 49.5 °F /  9.7 °C 30.40in /  1029.3hPa WSW 1mph /  1.6km/h 3mph /  4.8km/h 75% 0.00in /  0mm 120 W/m2
14:50 57.2 °F /  14 °C 49.3 °F /  9.6 °C 30.40in /  1029.3hPa NNW 2mph /  3.2km/h 3mph /  4.8km/h 75% 0.00in /  0mm 101 W/m2
15:00 57.2 °F /  14 °C 49.7 °F /  9.8 °C 30.40in /  1029.3hPa NNW 1mph /  1.6km/h 2mph /  3.2km/h 76% 0.00in /  0mm 106 W/m2
15:10 57.2 °F /  14 °C 49.7 °F /  9.8 °C 30.40in /  1029.3hPa Calm   2mph /  3.2km/h 76% 0.00in /  0mm 108 W/m2
15:20 57.2 °F /  14 °C 49.7 °F /  9.8 °C 30.40in /  1029.3hPa SW 1mph /  1.6km/h 2mph /  3.2km/h 76% 0.00in /  0mm 93 W/m2
15:30 57.1 °F /  13.9 °C 49.3 °F /  9.6 °C 30.40in /  1029.3hPa Calm   3mph /  4.8km/h 75% 0.00in /  0mm 95 W/m2
Knjazevac, Serbia
Compliments of Weather Underground - 2 mb